sensor_id;sensor_type;location;lat;lon;timestamp;pressure;altitude;pressure_sealevel;temperature;humidity
61870;BME280;47810;42.264;23.826;2023-03-04T00:00:31;93839.81;;;3.03;86.97
61870;BME280;47810;42.264;23.826;2023-03-04T00:02:56;93835.00;;;2.92;87.36
61870;BME280;47810;42.264;23.826;2023-03-04T00:05:22;93834.22;;;2.90;87.57
61870;BME280;47810;42.264;23.826;2023-03-04T00:07:48;93832.22;;;2.97;87.50
61870;BME280;47810;42.264;23.826;2023-03-04T00:10:14;93830.59;;;3.18;86.62
61870;BME280;47810;42.264;23.826;2023-03-04T00:12:39;93831.00;;;2.82;87.14
61870;BME280;47810;42.264;23.826;2023-03-04T00:15:05;93823.88;;;2.87;87.30
61870;BME280;47810;42.264;23.826;2023-03-04T00:17:31;93820.72;;;3.02;87.19
61870;BME280;47810;42.264;23.826;2023-03-04T00:19:57;93825.47;;;2.91;87.68
61870;BME280;47810;42.264;23.826;2023-03-04T00:22:23;93823.03;;;2.87;87.66
61870;BME280;47810;42.264;23.826;2023-03-04T00:24:48;93831.94;;;3.04;87.58
61870;BME280;47810;42.264;23.826;2023-03-04T00:27:14;93822.38;;;3.05;88.00
61870;BME280;47810;42.264;23.826;2023-03-04T00:29:39;93822.81;;;3.16;87.41
61870;BME280;47810;42.264;23.826;2023-03-04T00:32:05;93814.88;;;3.19;87.41
61870;BME280;47810;42.264;23.826;2023-03-04T00:34:30;93827.72;;;3.24;87.37
61870;BME280;47810;42.264;23.826;2023-03-04T00:36:56;93821.78;;;3.20;87.88
61870;BME280;47810;42.264;23.826;2023-03-04T00:39:26;93833.06;;;3.21;87.73
61870;BME280;47810;42.264;23.826;2023-03-04T00:41:52;93825.75;;;3.07;87.91
61870;BME280;47810;42.264;23.826;2023-03-04T00:44:17;93828.81;;;2.71;88.97
61870;BME280;47810;42.264;23.826;2023-03-04T00:46:43;93818.59;;;2.89;89.34
61870;BME280;47810;42.264;23.826;2023-03-04T00:49:08;93815.44;;;3.04;88.14
61870;BME280;47810;42.264;23.826;2023-03-04T00:51:36;93817.56;;;3.18;87.92
61870;BME280;47810;42.264;23.826;2023-03-04T00:54:02;93817.28;;;3.24;87.59
61870;BME280;47810;42.264;23.826;2023-03-04T00:56:27;93817.56;;;3.18;87.50
61870;BME280;47810;42.264;23.826;2023-03-04T00:58:53;93814.88;;;3.19;87.80
61870;BME280;47810;42.264;23.826;2023-03-04T01:01:19;93811.56;;;3.14;88.07
61870;BME280;47810;42.264;23.826;2023-03-04T01:03:44;93819.00;;;3.25;87.63
61870;BME280;47810;42.264;23.826;2023-03-04T01:06:10;93823.38;;;3.24;87.67
61870;BME280;47810;42.264;23.826;2023-03-04T01:08:35;93815.38;;;3.29;87.60
61870;BME280;47810;42.264;23.826;2023-03-04T01:11:01;93818.44;;;3.40;87.42
61870;BME280;47810;42.264;23.826;2023-03-04T01:13:27;93814.91;;;3.41;87.53
61870;BME280;47810;42.264;23.826;2023-03-04T01:15:52;93819.31;;;3.39;87.46
61870;BME280;47810;42.264;23.826;2023-03-04T01:18:18;93817.94;;;3.53;87.31
61870;BME280;47810;42.264;23.826;2023-03-04T01:20:43;93822.44;;;3.71;86.23
61870;BME280;47810;42.264;23.826;2023-03-04T01:23:09;93818.19;;;3.68;86.02
61870;BME280;47810;42.264;23.826;2023-03-04T01:25:34;93821.91;;;3.63;86.27
61870;BME280;47810;42.264;23.826;2023-03-04T01:28:00;93813.75;;;3.48;86.38
61870;BME280;47810;42.264;23.826;2023-03-04T01:30:25;93807.84;;;3.43;87.15
61870;BME280;47810;42.264;23.826;2023-03-04T01:32:51;93806.47;;;3.35;87.47
61870;BME280;47810;42.264;23.826;2023-03-04T01:35:17;93807.13;;;3.62;87.20
61870;BME280;47810;42.264;23.826;2023-03-04T01:37:43;93808.59;;;3.47;87.15
61870;BME280;47810;42.264;23.826;2023-03-04T01:40:08;93805.28;;;3.20;88.31
61870;BME280;47810;42.264;23.826;2023-03-04T01:42:34;93804.94;;;3.29;88.51
61870;BME280;47810;42.264;23.826;2023-03-04T01:45:00;93801.13;;;3.38;87.68
61870;BME280;47810;42.264;23.826;2023-03-04T01:47:27;93793.84;;;3.46;87.59
61870;BME280;47810;42.264;23.826;2023-03-04T01:49:53;93794.44;;;3.53;87.28
61870;BME280;47810;42.264;23.826;2023-03-04T01:52:20;93794.25;;;3.35;87.86
61870;BME280;47810;42.264;23.826;2023-03-04T01:54:46;93790.47;;;3.20;88.44
61870;BME280;47810;42.264;23.826;2023-03-04T01:57:19;93786.06;;;3.22;88.95
61870;BME280;47810;42.264;23.826;2023-03-04T01:59:45;93787.13;;;3.40;88.14
61870;BME280;47810;42.264;23.826;2023-03-04T02:02:11;93771.94;;;3.28;88.04
61870;BME280;47810;42.264;23.826;2023-03-04T02:04:37;93769.56;;;3.22;88.13
61870;BME280;47810;42.264;23.826;2023-03-04T02:07:03;93770.28;;;3.25;88.00
61870;BME280;47810;42.264;23.826;2023-03-04T02:09:29;93773.50;;;3.32;87.60
61870;BME280;47810;42.264;23.826;2023-03-04T02:11:56;93770.09;;;3.30;87.42
61870;BME280;47810;42.264;23.826;2023-03-04T02:14:21;93772.91;;;3.25;87.64
61870;BME280;47810;42.264;23.826;2023-03-04T02:16:47;93778.00;;;3.29;87.87
61870;BME280;47810;42.264;23.826;2023-03-04T02:21:41;93777.03;;;3.31;87.47
61870;BME280;47810;42.264;23.826;2023-03-04T02:24:18;93785.38;;;3.63;86.60
61870;BME280;47810;42.264;23.826;2023-03-04T02:26:47;93783.13;;;3.54;86.61
61870;BME280;47810;42.264;23.826;2023-03-04T02:29:13;93780.44;;;3.55;86.87
61870;BME280;47810;42.264;23.826;2023-03-04T02:31:43;93779.22;;;3.64;86.71
61870;BME280;47810;42.264;23.826;2023-03-04T02:34:16;93777.78;;;3.57;87.05
61870;BME280;47810;42.264;23.826;2023-03-04T02:36:43;93772.78;;;3.50;86.67
61870;BME280;47810;42.264;23.826;2023-03-04T02:39:19;93768.91;;;3.61;86.93
61870;BME280;47810;42.264;23.826;2023-03-04T02:41:49;93769.25;;;3.52;86.81
61870;BME280;47810;42.264;23.826;2023-03-04T02:44:16;93773.44;;;3.56;86.70
61870;BME280;47810;42.264;23.826;2023-03-04T02:46:42;93777.03;;;3.53;86.82
61870;BME280;47810;42.264;23.826;2023-03-04T02:49:07;93774.59;;;3.48;87.16
61870;BME280;47810;42.264;23.826;2023-03-04T02:51:33;93771.19;;;3.46;87.40
61870;BME280;47810;42.264;23.826;2023-03-04T02:53:58;93763.31;;;3.48;87.83
61870;BME280;47810;42.264;23.826;2023-03-04T02:56:24;93763.00;;;3.56;87.34
61870;BME280;47810;42.264;23.826;2023-03-04T02:58:49;93770.34;;;3.68;87.26
61870;BME280;47810;42.264;23.826;2023-03-04T03:01:15;93775.19;;;3.77;86.54
61870;BME280;47810;42.264;23.826;2023-03-04T03:03:40;93772.16;;;3.66;86.88
61870;BME280;47810;42.264;23.826;2023-03-04T03:06:06;93770.59;;;3.62;87.12
61870;BME280;47810;42.264;23.826;2023-03-04T03:08:32;93765.38;;;3.62;87.02
61870;BME280;47810;42.264;23.826;2023-03-04T03:10:57;93765.94;;;3.90;85.93
61870;BME280;47810;42.264;23.826;2023-03-04T03:13:23;93765.31;;;3.85;86.18
61870;BME280;47810;42.264;23.826;2023-03-04T03:15:49;93766.53;;;3.77;86.69
61870;BME280;47810;42.264;23.826;2023-03-04T03:18:15;93760.59;;;3.73;86.87
61870;BME280;47810;42.264;23.826;2023-03-04T03:20:40;93763.06;;;3.76;87.04
61870;BME280;47810;42.264;23.826;2023-03-04T03:23:06;93769.44;;;4.11;85.44
61870;BME280;47810;42.264;23.826;2023-03-04T03:25:32;93759.84;;;4.12;85.32
61870;BME280;47810;42.264;23.826;2023-03-04T03:27:58;93760.69;;;4.12;85.15
61870;BME280;47810;42.264;23.826;2023-03-04T03:30:24;93762.97;;;4.20;84.70
61870;BME280;47810;42.264;23.826;2023-03-04T03:32:50;93768.97;;;4.02;85.05
61870;BME280;47810;42.264;23.826;2023-03-04T03:35:16;93763.25;;;3.71;85.98
61870;BME280;47810;42.264;23.826;2023-03-04T03:37:41;93758.13;;;3.46;87.86
61870;BME280;47810;42.264;23.826;2023-03-04T03:40:07;93764.03;;;3.52;87.94
61870;BME280;47810;42.264;23.826;2023-03-04T03:42:33;93768.06;;;3.38;88.13
61870;BME280;47810;42.264;23.826;2023-03-04T03:44:58;93764.97;;;3.50;87.91
61870;BME280;47810;42.264;23.826;2023-03-04T03:47:24;93757.84;;;3.54;88.04
61870;BME280;47810;42.264;23.826;2023-03-04T03:49:49;93768.94;;;3.59;88.13
61870;BME280;47810;42.264;23.826;2023-03-04T03:52:15;93769.63;;;3.64;88.11
61870;BME280;47810;42.264;23.826;2023-03-04T03:54:40;93764.88;;;3.74;87.38
61870;BME280;47810;42.264;23.826;2023-03-04T03:57:06;93760.84;;;3.87;86.24
61870;BME280;47810;42.264;23.826;2023-03-04T03:59:31;93757.03;;;3.74;86.31
61870;BME280;47810;42.264;23.826;2023-03-04T04:01:57;93754.94;;;3.62;86.84
61870;BME280;47810;42.264;23.826;2023-03-04T04:04:22;93761.88;;;3.63;86.85
61870;BME280;47810;42.264;23.826;2023-03-04T04:06:48;93751.66;;;3.57;86.84
61870;BME280;47810;42.264;23.826;2023-03-04T04:09:13;93749.59;;;3.65;86.82
61870;BME280;47810;42.264;23.826;2023-03-04T04:11:39;93748.41;;;3.72;86.52
61870;BME280;47810;42.264;23.826;2023-03-04T04:14:04;93750.38;;;3.67;86.84
61870;BME280;47810;42.264;23.826;2023-03-04T04:16:30;93750.91;;;3.75;86.81
61870;BME280;47810;42.264;23.826;2023-03-04T04:18:55;93755.63;;;3.87;85.98
61870;BME280;47810;42.264;23.826;2023-03-04T04:21:21;93757.19;;;3.91;85.06
61870;BME280;47810;42.264;23.826;2023-03-04T04:23:47;93754.91;;;3.84;84.95
61870;BME280;47810;42.264;23.826;2023-03-04T04:26:12;93759.03;;;3.89;84.14
61870;BME280;47810;42.264;23.826;2023-03-04T04:28:38;93765.25;;;3.65;84.36
61870;BME280;47810;42.264;23.826;2023-03-04T04:31:07;93761.75;;;3.44;85.44
61870;BME280;47810;42.264;23.826;2023-03-04T04:33:33;93760.03;;;3.43;86.23
61870;BME280;47810;42.264;23.826;2023-03-04T04:35:58;93758.09;;;3.48;86.14
61870;BME280;47810;42.264;23.826;2023-03-04T04:38:25;93763.25;;;3.49;86.04
61870;BME280;47810;42.264;23.826;2023-03-04T04:40:51;93755.91;;;3.59;85.16
61870;BME280;47810;42.264;23.826;2023-03-04T04:43:16;93759.91;;;3.46;85.08
61870;BME280;47810;42.264;23.826;2023-03-04T04:45:42;93758.66;;;3.34;85.79
61870;BME280;47810;42.264;23.826;2023-03-04T04:48:07;93757.41;;;3.43;85.55
61870;BME280;47810;42.264;23.826;2023-03-04T04:50:33;93762.13;;;3.57;84.53
61870;BME280;47810;42.264;23.826;2023-03-04T04:52:58;93754.44;;;3.30;85.28
61870;BME280;47810;42.264;23.826;2023-03-04T04:55:24;93758.31;;;3.20;85.83
61870;BME280;47810;42.264;23.826;2023-03-04T04:57:50;93760.34;;;3.35;85.47
61870;BME280;47810;42.264;23.826;2023-03-04T05:00:15;93761.16;;;3.37;85.08
61870;BME280;47810;42.264;23.826;2023-03-04T05:02:43;93753.56;;;3.31;85.28
61870;BME280;47810;42.264;23.826;2023-03-04T05:05:08;93759.91;;;3.24;85.42
61870;BME280;47810;42.264;23.826;2023-03-04T05:07:34;93760.63;;;3.06;85.59
61870;BME280;47810;42.264;23.826;2023-03-04T05:10:00;93760.19;;;2.71;87.04
61870;BME280;47810;42.264;23.826;2023-03-04T05:12:25;93762.28;;;2.85;87.46
61870;BME280;47810;42.264;23.826;2023-03-04T05:14:50;93768.72;;;2.98;86.45
61870;BME280;47810;42.264;23.826;2023-03-04T05:17:16;93766.75;;;2.81;86.61
61870;BME280;47810;42.264;23.826;2023-03-04T05:19:42;93767.81;;;2.75;86.82
61870;BME280;47810;42.264;23.826;2023-03-04T05:22:07;93759.63;;;2.86;86.30
61870;BME280;47810;42.264;23.826;2023-03-04T05:24:33;93768.72;;;2.98;85.90
61870;BME280;47810;42.264;23.826;2023-03-04T05:26:59;93765.41;;;2.71;86.69
61870;BME280;47810;42.264;23.826;2023-03-04T05:29:25;93768.66;;;2.76;86.88
61870;BME280;47810;42.264;23.826;2023-03-04T05:31:50;93769.03;;;2.67;86.89
61870;BME280;47810;42.264;23.826;2023-03-04T05:34:16;93766.50;;;2.40;88.12
61870;BME280;47810;42.264;23.826;2023-03-04T05:36:41;93769.47;;;2.29;88.78
61870;BME280;47810;42.264;23.826;2023-03-04T05:39:08;93779.91;;;2.54;88.33
61870;BME280;47810;42.264;23.826;2023-03-04T05:41:34;93782.94;;;2.66;87.49
61870;BME280;47810;42.264;23.826;2023-03-04T05:44:00;93777.22;;;2.56;87.83
61870;BME280;47810;42.264;23.826;2023-03-04T05:46:26;93777.28;;;2.78;87.51
61870;BME280;47810;42.264;23.826;2023-03-04T05:48:52;93783.31;;;2.80;87.23
61870;BME280;47810;42.264;23.826;2023-03-04T05:51:18;93783.19;;;2.83;86.89
61870;BME280;47810;42.264;23.826;2023-03-04T05:53:45;93790.28;;;2.79;87.26
61870;BME280;47810;42.264;23.826;2023-03-04T05:56:12;93776.84;;;2.90;86.89
61870;BME280;47810;42.264;23.826;2023-03-04T05:58:38;93779.44;;;2.90;86.80
61870;BME280;47810;42.264;23.826;2023-03-04T06:01:04;93779.16;;;2.98;86.53
61870;BME280;47810;42.264;23.826;2023-03-04T06:03:29;93776.72;;;2.93;86.36
61870;BME280;47810;42.264;23.826;2023-03-04T06:05:56;93776.94;;;2.87;86.88
61870;BME280;47810;42.264;23.826;2023-03-04T06:08:22;93780.16;;;2.95;86.73
61870;BME280;47810;42.264;23.826;2023-03-04T06:10:50;93780.16;;;2.95;86.91
61870;BME280;47810;42.264;23.826;2023-03-04T06:13:16;93778.53;;;2.91;86.95
61870;BME280;47810;42.264;23.826;2023-03-04T06:15:41;93779.25;;;2.73;87.75
61870;BME280;47810;42.264;23.826;2023-03-04T06:18:07;93786.56;;;2.62;88.20
61870;BME280;47810;42.264;23.826;2023-03-04T06:20:32;93787.09;;;2.71;88.60
61870;BME280;47810;42.264;23.826;2023-03-04T06:22:58;93794.41;;;2.85;88.54
61870;BME280;47810;42.264;23.826;2023-03-04T06:25:24;93796.09;;;3.10;87.64
61870;BME280;47810;42.264;23.826;2023-03-04T06:27:50;93793.09;;;2.97;87.92
61870;BME280;47810;42.264;23.826;2023-03-04T06:30:15;93798.72;;;3.10;87.94
61870;BME280;47810;42.264;23.826;2023-03-04T06:32:41;93796.53;;;3.21;87.47
61870;BME280;47810;42.264;23.826;2023-03-04T06:35:09;93803.25;;;3.28;87.45
61870;BME280;47810;42.264;23.826;2023-03-04T06:37:35;93801.63;;;3.24;87.77
61870;BME280;47810;42.264;23.826;2023-03-04T06:40:00;93810.38;;;3.23;88.04
61870;BME280;47810;42.264;23.826;2023-03-04T06:42:27;93808.84;;;3.63;86.88
61870;BME280;47810;42.264;23.826;2023-03-04T06:44:53;93816.38;;;3.48;87.09
61870;BME280;47810;42.264;23.826;2023-03-04T06:47:18;93809.56;;;3.44;87.46
61870;BME280;47810;42.264;23.826;2023-03-04T06:49:44;93813.97;;;3.42;87.92
61870;BME280;47810;42.264;23.826;2023-03-04T06:52:10;93817.03;;;3.54;87.68
61870;BME280;47810;42.264;23.826;2023-03-04T06:54:37;93815.78;;;3.64;87.72
61870;BME280;47810;42.264;23.826;2023-03-04T06:57:02;93814.25;;;3.80;87.73
61870;BME280;47810;42.264;23.826;2023-03-04T06:59:28;93811.16;;;3.92;86.98
61870;BME280;47810;42.264;23.826;2023-03-04T07:01:54;93806.28;;;3.83;87.47
61870;BME280;47810;42.264;23.826;2023-03-04T07:04:19;93802.50;;;3.90;87.37
61870;BME280;47810;42.264;23.826;2023-03-04T07:06:46;93811.44;;;3.85;87.20
61870;BME280;47810;42.264;23.826;2023-03-04T07:09:12;93806.28;;;3.83;86.99
61870;BME280;47810;42.264;23.826;2023-03-04T07:11:38;93801.19;;;3.80;87.21
61870;BME280;47810;42.264;23.826;2023-03-04T07:14:03;93802.13;;;4.00;86.82
61870;BME280;47810;42.264;23.826;2023-03-04T07:16:31;93804.97;;;4.15;85.43
61870;BME280;47810;42.264;23.826;2023-03-04T07:18:58;93810.91;;;3.99;85.94
61870;BME280;47810;42.264;23.826;2023-03-04T07:21:23;93813.41;;;4.22;85.53
61870;BME280;47810;42.264;23.826;2023-03-04T07:23:49;93811.28;;;4.10;85.17
61870;BME280;47810;42.264;23.826;2023-03-04T07:26:15;93806.19;;;4.07;84.98
61870;BME280;47810;42.264;23.826;2023-03-04T07:28:40;93810.78;;;4.02;84.79
61870;BME280;47810;42.264;23.826;2023-03-04T07:33:48;93807.75;;;3.90;84.58
61870;BME280;47810;42.264;23.826;2023-03-04T07:36:13;93802.81;;;4.05;84.24
61870;BME280;47810;42.264;23.826;2023-03-04T07:38:43;93808.31;;;4.19;84.09
61870;BME280;47810;42.264;23.826;2023-03-04T07:41:08;93803.75;;;4.24;83.97
61870;BME280;47810;42.264;23.826;2023-03-04T07:43:34;93802.69;;;4.28;83.72
61870;BME280;47810;42.264;23.826;2023-03-04T07:46:00;93793.81;;;4.32;84.19
61870;BME280;47810;42.264;23.826;2023-03-04T07:48:26;93790.44;;;4.30;84.05
61870;BME280;47810;42.264;23.826;2023-03-04T07:51:01;93797.34;;;4.31;83.73
61870;BME280;47810;42.264;23.826;2023-03-04T07:53:26;93798.78;;;4.38;83.48
61870;BME280;47810;42.264;23.826;2023-03-04T07:55:52;93800.59;;;4.36;83.32
61870;BME280;47810;42.264;23.826;2023-03-04T07:58:17;93808.31;;;4.39;83.37
61870;BME280;47810;42.264;23.826;2023-03-04T08:00:44;93807.34;;;4.62;81.68
61870;BME280;47810;42.264;23.826;2023-03-04T08:03:09;93801.41;;;4.78;81.61
61870;BME280;47810;42.264;23.826;2023-03-04T08:05:37;93810.06;;;4.80;82.10
61870;BME280;47810;42.264;23.826;2023-03-04T08:08:03;93798.09;;;4.95;80.79
61870;BME280;47810;42.264;23.826;2023-03-04T08:10:29;93810.13;;;4.78;81.05
61870;BME280;47810;42.264;23.826;2023-03-04T08:12:54;93801.06;;;4.66;81.43
61870;BME280;47810;42.264;23.826;2023-03-04T08:15:20;93805.69;;;4.80;81.28
61870;BME280;47810;42.264;23.826;2023-03-04T08:17:45;93810.63;;;4.86;81.27
61870;BME280;47810;42.264;23.826;2023-03-04T08:20:11;93806.81;;;4.94;81.24
61870;BME280;47810;42.264;23.826;2023-03-04T08:22:37;93804.03;;;5.17;80.80
61870;BME280;47810;42.264;23.826;2023-03-04T08:25:02;93802.41;;;5.14;80.74
61870;BME280;47810;42.264;23.826;2023-03-04T08:27:28;93798.22;;;5.29;80.21
61870;BME280;47810;42.264;23.826;2023-03-04T08:29:56;93802.84;;;5.43;78.64
61870;BME280;47810;42.264;23.826;2023-03-04T08:32:22;93796.41;;;5.31;79.55
61870;BME280;47810;42.264;23.826;2023-03-04T08:34:47;93801.00;;;5.45;78.99
61870;BME280;47810;42.264;23.826;2023-03-04T08:37:13;93801.91;;;5.25;79.45
61870;BME280;47810;42.264;23.826;2023-03-04T08:39:38;93801.28;;;5.39;79.46
61870;BME280;47810;42.264;23.826;2023-03-04T08:42:04;93804.81;;;5.38;79.47
61870;BME280;47810;42.264;23.826;2023-03-04T08:44:29;93806.03;;;5.50;79.53
61870;BME280;47810;42.264;23.826;2023-03-04T08:46:56;93802.75;;;5.45;79.35
61870;BME280;47810;42.264;23.826;2023-03-04T08:49:21;93797.25;;;5.51;78.50
61870;BME280;47810;42.264;23.826;2023-03-04T08:51:47;93800.78;;;5.50;78.53
61870;BME280;47810;42.264;23.826;2023-03-04T08:54:13;93797.75;;;5.59;78.73
61870;BME280;47810;42.264;23.826;2023-03-04T08:56:39;93797.38;;;5.67;79.23
61870;BME280;47810;42.264;23.826;2023-03-04T08:59:05;93793.38;;;5.77;78.69
61870;BME280;47810;42.264;23.826;2023-03-04T09:01:31;93798.22;;;5.67;79.08
61870;BME280;47810;42.264;23.826;2023-03-04T09:03:56;93798.50;;;5.61;77.42
61870;BME280;47810;42.264;23.826;2023-03-04T09:06:22;93791.56;;;5.60;78.36
61870;BME280;47810;42.264;23.826;2023-03-04T09:08:47;93793.63;;;5.72;78.87
61870;BME280;47810;42.264;23.826;2023-03-04T09:11:13;93803.41;;;5.69;78.23
61870;BME280;47810;42.264;23.826;2023-03-04T09:13:39;93796.84;;;5.77;78.97
61870;BME280;47810;42.264;23.826;2023-03-04T09:16:11;93788.00;;;5.99;78.74
61870;BME280;47810;42.264;23.826;2023-03-04T09:18:38;93791.84;;;6.09;78.37
61870;BME280;47810;42.264;23.826;2023-03-04T09:21:04;93787.63;;;6.24;78.28
61870;BME280;47810;42.264;23.826;2023-03-04T09:23:30;93794.03;;;6.01;77.45
61870;BME280;47810;42.264;23.826;2023-03-04T09:25:55;93788.13;;;5.96;78.00
61870;BME280;47810;42.264;23.826;2023-03-04T09:28:21;93786.25;;;6.17;78.72
61870;BME280;47810;42.264;23.826;2023-03-04T09:30:47;93788.72;;;6.37;77.54
61870;BME280;47810;42.264;23.826;2023-03-04T09:33:13;93791.09;;;6.42;76.65
61870;BME280;47810;42.264;23.826;2023-03-04T09:35:39;93786.94;;;6.20;76.95
61870;BME280;47810;42.264;23.826;2023-03-04T09:38:04;93781.38;;;6.09;78.12
61870;BME280;47810;42.264;23.826;2023-03-04T09:40:45;93785.03;;;6.24;77.50
61870;BME280;47810;42.264;23.826;2023-03-04T09:43:19;93783.84;;;6.47;77.52
61870;BME280;47810;42.264;23.826;2023-03-04T09:45:48;93770.84;;;6.45;77.36
61870;BME280;47810;42.264;23.826;2023-03-04T09:48:16;93775.78;;;6.85;77.27
61870;BME280;47810;42.264;23.826;2023-03-04T09:50:53;93772.44;;;6.65;77.29
61870;BME280;47810;42.264;23.826;2023-03-04T09:53:21;93766.88;;;6.71;76.09
61870;BME280;47810;42.264;23.826;2023-03-04T09:55:48;93765.47;;;6.64;75.68
61870;BME280;47810;42.264;23.826;2023-03-04T10:05:31;93753.44;;;7.27;74.09
61870;BME280;47810;42.264;23.826;2023-03-04T10:08:00;93757.50;;;7.16;73.39
61870;BME280;47810;42.264;23.826;2023-03-04T10:10:34;93753.94;;;7.17;72.34
61870;BME280;47810;42.264;23.826;2023-03-04T10:13:02;93754.19;;;7.29;73.73
61870;BME280;47810;42.264;23.826;2023-03-04T10:15:41;93750.19;;;7.21;72.98
61870;BME280;47810;42.264;23.826;2023-03-04T10:20:43;93747.97;;;6.98;72.27
61870;BME280;47810;42.264;23.826;2023-03-04T10:23:14;93744.31;;;6.85;74.05
61870;BME280;47810;42.264;23.826;2023-03-04T10:25:43;93744.88;;;6.90;74.57
61870;BME280;47810;42.264;23.826;2023-03-04T10:28:16;93744.78;;;7.24;73.55
61870;BME280;47810;42.264;23.826;2023-03-04T10:30:48;93738.50;;;7.11;73.40
61870;BME280;47810;42.264;23.826;2023-03-04T10:33:16;93729.91;;;6.92;73.85
61870;BME280;47810;42.264;23.826;2023-03-04T10:35:44;93732.63;;;7.06;73.01
61870;BME280;47810;42.264;23.826;2023-03-04T10:38:09;93724.69;;;6.92;72.06
61870;BME280;47810;42.264;23.826;2023-03-04T10:40:38;93729.09;;;6.58;73.56
61870;BME280;47810;42.264;23.826;2023-03-04T10:43:04;93722.53;;;6.32;73.68
61870;BME280;47810;42.264;23.826;2023-03-04T10:45:37;93716.34;;;6.50;73.79
61870;BME280;47810;42.264;23.826;2023-03-04T10:48:03;93712.78;;;6.69;74.82
61870;BME280;47810;42.264;23.826;2023-03-04T10:50:29;93706.91;;;6.64;72.53
61870;BME280;47810;42.264;23.826;2023-03-04T10:52:56;93711.00;;;6.69;72.55
61870;BME280;47810;42.264;23.826;2023-03-04T10:55:26;93702.16;;;6.88;71.61
61870;BME280;47810;42.264;23.826;2023-03-04T10:57:53;93706.66;;;7.02;73.40
61870;BME280;47810;42.264;23.826;2023-03-04T11:00:23;93700.06;;;7.10;73.38
61870;BME280;47810;42.264;23.826;2023-03-04T11:02:49;93694.66;;;7.13;72.04
61870;BME280;47810;42.264;23.826;2023-03-04T11:05:23;93682.94;;;7.35;70.42
61870;BME280;47810;42.264;23.826;2023-03-04T11:07:50;93688.91;;;7.38;71.89
61870;BME280;47810;42.264;23.826;2023-03-04T11:12:50;93684.47;;;6.91;73.79
61870;BME280;47810;42.264;23.826;2023-03-04T11:15:17;93673.28;;;6.88;74.81
61870;BME280;47810;42.264;23.826;2023-03-04T11:17:47;93664.59;;;7.03;74.62
61870;BME280;47810;42.264;23.826;2023-03-04T11:23:03;93656.09;;;6.98;74.70
61870;BME280;47810;42.264;23.826;2023-03-04T11:25:31;93661.97;;;7.03;75.22
61870;BME280;47810;42.264;23.826;2023-03-04T11:27:58;93658.72;;;6.98;74.63
61870;BME280;47810;42.264;23.826;2023-03-04T11:33:19;93649.06;;;7.30;73.71
61870;BME280;47810;42.264;23.826;2023-03-04T11:35:53;93644.66;;;7.15;71.42
61870;BME280;47810;42.264;23.826;2023-03-04T11:41:34;93634.97;;;7.47;71.44
61870;BME280;47810;42.264;23.826;2023-03-04T11:44:00;93631.44;;;7.48;70.23
61870;BME280;47810;42.264;23.826;2023-03-04T11:56:41;93627.00;;;7.64;71.56
61870;BME280;47810;42.264;23.826;2023-03-04T12:12:22;93610.38;;;7.94;71.27
61870;BME280;47810;42.264;23.826;2023-03-04T12:22:49;93608.75;;;7.31;73.35
61870;BME280;47810;42.264;23.826;2023-03-04T12:35:45;93593.13;;;8.19;69.00
61870;BME280;47810;42.264;23.826;2023-03-04T12:38:18;93590.22;;;8.23;70.73
61870;BME280;47810;42.264;23.826;2023-03-04T12:49:05;93573.97;;;8.59;69.62
61870;BME280;47810;42.264;23.826;2023-03-04T12:54:24;93572.44;;;8.84;69.31
61870;BME280;47810;42.264;23.826;2023-03-04T12:56:57;93568.47;;;8.91;69.58
61870;BME280;47810;42.264;23.826;2023-03-04T12:59:25;93557.41;;;8.72;69.45
61870;BME280;47810;42.264;23.826;2023-03-04T13:02:10;93557.56;;;8.97;69.60
61870;BME280;47810;42.264;23.826;2023-03-04T13:09:54;93547.72;;;8.86;65.57
61870;BME280;47810;42.264;23.826;2023-03-04T13:12:22;93544.75;;;9.05;66.66
61870;BME280;47810;42.264;23.826;2023-03-04T13:17:39;93548.56;;;8.73;68.73
61870;BME280;47810;42.264;23.826;2023-03-04T13:20:16;93549.41;;;9.15;69.33
61870;BME280;47810;42.264;23.826;2023-03-04T13:22:54;93547.50;;;9.31;68.10
61870;BME280;47810;42.264;23.826;2023-03-04T13:41:03;93522.53;;;9.49;66.60
61870;BME280;47810;42.264;23.826;2023-03-04T13:46:30;93521.53;;;9.65;66.27
61870;BME280;47810;42.264;23.826;2023-03-04T13:56:22;93512.38;;;9.96;65.55
61870;BME280;47810;42.264;23.826;2023-03-04T13:58:50;93509.72;;;9.57;63.88
61870;BME280;47810;42.264;23.826;2023-03-04T14:01:24;93512.38;;;9.30;62.10
61870;BME280;47810;42.264;23.826;2023-03-04T14:03:50;93512.13;;;9.21;63.82
61870;BME280;47810;42.264;23.826;2023-03-04T14:06:17;93502.16;;;9.26;63.73
61870;BME280;47810;42.264;23.826;2023-03-04T14:08:43;93499.81;;;9.61;61.58
61870;BME280;47810;42.264;23.826;2023-03-04T14:11:13;93500.00;;;9.58;62.57
61870;BME280;47810;42.264;23.826;2023-03-04T14:13:39;93502.09;;;9.53;63.97
61870;BME280;47810;42.264;23.826;2023-03-04T14:16:05;93494.72;;;9.45;64.65
61870;BME280;47810;42.264;23.826;2023-03-04T14:18:30;93493.91;;;9.57;64.37
61870;BME280;47810;42.264;23.826;2023-03-04T14:20:56;93485.69;;;9.75;62.81
61870;BME280;47810;42.264;23.826;2023-03-04T14:25:59;93484.22;;;8.91;66.34
61870;BME280;47810;42.264;23.826;2023-03-04T14:28:27;93483.13;;;8.81;67.10
61870;BME280;47810;42.264;23.826;2023-03-04T14:30:53;93482.56;;;8.90;65.57
61870;BME280;47810;42.264;23.826;2023-03-04T14:33:27;93479.44;;;9.10;65.89
61870;BME280;47810;42.264;23.826;2023-03-04T14:35:57;93483.47;;;9.16;64.87
61870;BME280;47810;42.264;23.826;2023-03-04T14:40:52;93472.91;;;9.03;66.01
61870;BME280;47810;42.264;23.826;2023-03-04T14:43:20;93464.72;;;9.21;65.71
61870;BME280;47810;42.264;23.826;2023-03-04T14:45:47;93470.34;;;9.29;66.27
61870;BME280;47810;42.264;23.826;2023-03-04T14:48:21;93468.97;;;9.36;65.49
61870;BME280;47810;42.264;23.826;2023-03-04T14:50:50;93469.78;;;9.24;66.14
61870;BME280;47810;42.264;23.826;2023-03-04T14:53:17;93462.03;;;9.35;64.46
61870;BME280;47810;42.264;23.826;2023-03-04T14:55:57;93459.94;;;9.00;65.39